»·PEaware :: AAL2017 KLAX-KPHX

AAL2017 :: KLAX-KPHX

FLIGHT INFORMATION

Flight Status: Arrived
Operator:
American Airlines
More flights by this operator :: More flights under this callsign
Pilot: Jordan S. (14404)
Aircraft: BOEING 757-200
(B752)
More flights by this aircraft type
Origin: KLAX Los Angeles Intl
United States
Destination: KPHX Phoenix Sky Harbor Intl
United States
More flights between these airports :: More routes between these airports
Route: DOTSS2 CNERY BLH HYDRR1
File this flight plan on PilotEdge
Remarks:
Altitude:
(Current/Filed)
25,000ft
Speed:
(Current/Filed)
480kts
Departed: 25-Sep-17 01:09 PM
Arrived: 25-Sep-17 02:11 PM
Distance/Time
Traveled:
321nm/1:02
Distance/Time
To Go:
Arrived

Flight Plot

Page will automatically refresh every two minutes.

Flight plan parsing failed; only flown route is shown


Map Options




Map Legend


Flown Route
Filed Route
Departure Airport
Arrival Airport
Navaid (VOR, NDB)
Fix

Horizontal Profiles

Position Reports

Time Latitude Longitude Heading Altitude Ground
Speed
25-Sep-17 13:01 33.941138 -118.400224 95 136ft 0kts
25-Sep-17 13:02 33.941138 -118.400224 95 136ft 0kts
25-Sep-17 13:03 33.941138 -118.400224 95 136ft 0kts
25-Sep-17 13:04 33.941155 -118.400445 95 136ft 3kts
25-Sep-17 13:05 33.941563 -118.401016 185 136ft 0kts
25-Sep-17 13:06 33.941563 -118.401016 186 136ft 0kts
25-Sep-17 13:07 33.941161 -118.401058 180 136ft 0kts
25-Sep-17 13:08 33.940560 -118.400757 159 136ft 0kts
25-Sep-17 13:09 33.938893 -118.398969 83 136ft 16kts
25-Sep-17 13:10 33.939599 -118.391981 82 136ft 25kts
25-Sep-17 13:11 33.940537 -118.382867 83 136ft 26kts
25-Sep-17 13:12 33.940713 -118.380772 99 137ft 1kts
25-Sep-17 13:13 33.938818 -118.390086 262 137ft 141kts
25-Sep-17 13:14 33.927317 -118.463370 237 2069ft 255kts
25-Sep-17 13:15 33.882340 -118.530908 230 4822ft 265kts
25-Sep-17 13:16 33.816233 -118.552159 168 7659ft 277kts
25-Sep-17 13:17 33.739845 -118.532238 167 10486ft 288kts
25-Sep-17 13:18 33.683680 -118.472461 110 13315ft 302kts
25-Sep-17 13:19 33.652953 -118.371033 109 15926ft 346kts
25-Sep-17 13:20 33.644756 -118.252040 90 18431ft 383kts
25-Sep-17 13:21 33.644684 -118.119407 90 20848ft 415kts
25-Sep-17 13:22 33.644534 -117.976426 90 23016ft 444kts
25-Sep-17 13:23 33.644046 -117.825163 92 25009ft 468kts
25-Sep-17 13:24 33.613202 -117.669882 106 25003ft 484kts
25-Sep-17 13:25 33.575035 -117.515088 106 25000ft 484kts
25-Sep-17 13:26 33.536733 -117.360951 106 25000ft 484kts
25-Sep-17 13:27 33.505186 -117.204611 92 25001ft 484kts
25-Sep-17 13:28 33.502462 -117.044048 91 25000ft 484kts
25-Sep-17 13:29 33.500015 -116.882825 90 25000ft 484kts
25-Sep-17 13:30 33.497460 -116.722080 90 25000ft 484kts
25-Sep-17 13:31 33.494696 -116.561007 90 25000ft 484kts
25-Sep-17 13:32 33.491824 -116.399957 90 25000ft 484kts
25-Sep-17 13:33 33.489436 -116.239025 91 25000ft 484kts
25-Sep-17 13:34 33.486948 -116.078042 89 24999ft 484kts
25-Sep-17 13:35 33.519151 -115.922805 70 25005ft 484kts
25-Sep-17 13:36 33.563235 -115.770516 70 25002ft 484kts
25-Sep-17 13:37 33.607336 -115.618412 70 25000ft 484kts
25-Sep-17 13:38 33.626521 -115.460753 95 25004ft 484kts
25-Sep-17 13:39 33.617278 -115.299859 93 25000ft 484kts
25-Sep-17 13:40 33.610802 -115.138378 92 25000ft 484kts
25-Sep-17 13:41 33.604622 -114.977458 92 25000ft 484kts
25-Sep-17 13:42 33.598296 -114.816237 92 25000ft 484kts
25-Sep-17 13:43 33.575759 -114.657720 102 25003ft 484kts
25-Sep-17 13:44 33.545399 -114.500659 102 25000ft 484kts
25-Sep-17 13:45 33.514626 -114.343660 103 25000ft 484kts
25-Sep-17 13:46 33.483790 -114.187595 103 25000ft 484kts
25-Sep-17 13:47 33.452779 -114.031045 103 25000ft 484kts
25-Sep-17 13:48 33.421835 -113.874227 103 24873ft 480kts
25-Sep-17 13:49 33.391805 -113.726549 103 23308ft 439kts
25-Sep-17 13:50 33.364116 -113.592122 103 22245ft 395kts
25-Sep-17 13:51 33.338676 -113.467644 103 21974ft 373kts
25-Sep-17 13:52 33.317823 -113.348106 101 20214ft 365kts
25-Sep-17 13:53 33.297561 -113.231055 101 18424ft 357kts
25-Sep-17 13:54 33.280934 -113.115574 99 16638ft 351kts
25-Sep-17 13:55 33.276206 -113.000729 88 14970ft 341kts
25-Sep-17 13:56 33.278797 -112.892719 88 13673ft 308kts
25-Sep-17 13:57 33.283232 -112.791511 82 12284ft 303kts
25-Sep-17 13:58 33.292586 -112.693514 83 11139ft 294kts
25-Sep-17 13:59 33.301672 -112.596339 83 11155ft 294kts
25-Sep-17 14:00 33.310543 -112.500571 83 11155ft 294kts
25-Sep-17 14:01 33.319452 -112.403567 83 11155ft 294kts
25-Sep-17 14:02 33.328244 -112.307318 83 10849ft 284kts
25-Sep-17 14:03 33.336414 -112.217419 83 10242ft 259kts
25-Sep-17 14:04 33.343849 -112.134966 83 9591ft 242kts
25-Sep-17 14:05 33.347097 -112.055371 90 8867ft 241kts
25-Sep-17 14:06 33.346206 -111.979838 90 7868ft 244kts
25-Sep-17 14:07 33.344818 -111.897489 89 6720ft 250kts
25-Sep-17 14:08 33.344793 -111.815933 89 6162ft 232kts
25-Sep-17 14:09 33.365437 -111.746906 21 4999ft 251kts
25-Sep-17 14:10 33.419436 -111.774893 299 3189ft 218kts
25-Sep-17 14:11 33.430948 -111.825001 275 3189ft 199kts
25-Sep-17 14:12 33.437253 -111.885619 276 3030ft 163kts
25-Sep-17 14:13 33.440139 -111.938313 272 1947ft 143kts
25-Sep-17 14:14 33.440605 -111.982174 270 1311ft 123kts
25-Sep-17 14:15 33.440553 -112.010625 226 1146ft 13kts
25-Sep-17 14:16 33.440445 -112.010755 225 1145ft 0kts

Navigation Log

Ident Type
Flight plan parsing failed, navigation log unavailable